Date,TemperatureHighF,TemperatureAvgF,TemperatureLowF,DewpointHighF,DewpointAvgF,DewpointLowF,HumidityHigh,HumidityAvg,HumidityLow,PressureMaxIn,PressureMinIn,WindSpeedMaxMPH,WindSpeedAvgMPH,GustSpeedMaxMPH,PrecipitationSumIn
2013-3-1,43.0,33.3,30.0,34.0,29.2,27.0,90,84,69,30.50,30.43,8,3,10,0.00
2013-3-2,44.0,34.6,24.0,35.0,28.9,21.0,92,80,58,30.47,30.00,10,-37,13,0.00
2013-3-3,44.0,38.5,28.0,36.0,29.6,18.0,86,70,55,30.01,29.79,37,20,48,0.00
2013-3-4,34.0,29.2,24.0,20.0,11.4,7.0,70,48,33,30.21,29.94,13,7,17,0.00
2013-3-5,45.0,33.1,26.0,24.0,15.1,7.0,83,49,32,30.20,29.88,20,9,29,0.00
2013-3-6,52.0,34.7,24.0,34.0,26.2,19.0,90,72,39,29.93,29.67,30,10,39,0.00
2013-3-7,41.0,35.2,31.0,27.0,23.5,19.0,74,62,49,30.01,29.89,16,9,19,0.00
2013-3-8,41.0,34.9,29.0,34.0,29.5,24.0,91,80,63,29.89,29.78,11,5,15,0.00
2013-3-9,44.0,32.6,22.0,25.0,20.0,14.0,91,64,31,30.25,29.83,21,7,29,0.00
2013-3-10,47.0,37.1,25.0,27.0,22.3,15.0,81,56,34,30.35,30.18,22,14,27,0.00
2013-3-11,51.0,42.2,38.0,37.0,26.6,16.0,81,55,35,30.20,30.08,23,15,29,0.00
2013-3-12,53.0,41.7,29.0,34.0,30.2,25.0,82,64,44,30.27,30.14,19,12,24,0.00
2013-3-13,62.0,45.7,30.0,36.0,31.0,26.0,88,60,32,30.30,30.19,18,9,22,0.00
2013-3-14,63.0,45.9,29.0,36.0,30.8,26.0,91,61,29,30.27,30.09,18,6,24,0.00
2013-3-15,61.0,50.7,39.0,32.0,29.0,26.0,69,44,27,30.10,29.99,25,14,31,0.00
2013-3-16,55.0,44.6,33.0,35.0,25.6,18.0,79,49,24,30.01,29.76,23,14,29,0.00
2013-3-17,42.0,36.4,27.0,36.0,17.1,3.0,85,49,21,29.95,29.70,37,22,48,0.00
2013-3-18,44.0,32.6,24.0,17.0,10.4,-99.9,66,44,30,30.04,29.92,32,20,43,0.00
2013-3-19,50.0,34.5,23.0,18.0,4.0,-99.9,70,37,14,30.22,30.04,20,8,27,0.00
2013-3-20,48.0,40.2,36.0,40.0,19.0,-99.9,87,57,14,30.08,29.64,30,15,38,0.00
2013-3-21,42.0,29.7,28.0,37.0,6.7,-99.9,86,55,40,29.94,29.69,35,25,47,0.00
2013-3-22,32.0,26.0,23.0,24.0,16.3,-99.9,89,72,52,29.99,29.85,20,12,28,0.00
2013-3-23,32.0,24.0,14.0,22.0,16.6,10.0,88,74,43,30.17,29.99,16,8,21,0.00
2013-3-24,35.0,26.0,18.0,20.0,12.0,-99.9,84,59,27,30.20,30.13,10,5,17,0.00
2013-3-25,46.0,23.2,13.0,24.0,-5.1,-99.9,77,47,29,30.17,30.00,10,4,11,0.00
2013-3-26,46.0,35.7,30.0,33.0,21.0,-99.9,85,63,45,30.00,29.91,12,5,18,0.00
2013-3-27,56.0,41.4,29.0,35.0,29.2,24.0,90,65,28,30.02,29.95,10,4,15,0.00
2013-3-28,63.0,45.7,28.0,34.0,29.1,24.0,88,57,24,30.06,29.98,20,6,27,0.00
2013-3-29,63.0,50.5,36.0,36.0,31.8,27.0,77,51,26,30.17,30.05,22,12,31,0.00
2013-3-30,60.0,47.8,33.0,33.0,27.3,-99.9,79,50,24,30.22,30.13,15,6,18,0.00
2013-3-31,67.0,47.3,26.0,29.0,21.8,9.0,82,44,11,30.13,29.92,13,5,18,0.00